METAR Data
IDs: Format: Raw Decoded Include TAF

Data at: 0547 UTC 07 Dec 2022

KPDT 070453Z AUTO 19007KT 10SM CLR 01/M03 A3012 RMK AO2 SLP209 T00111033
KPDT 070353Z 17006KT 10SM CLR 01/M03 A3011 RMK AO2 SLP207 T00111033
KPDT 070253Z 18009KT 10SM CLR 02/M03 A3010 RMK AO2 SLP204 T00171028 52010
KPDT 070153Z 17006KT 10SM CLR 02/M02 A3009 RMK AO2 SLP200 T00221022
KPDT 070053Z 24010KT 10SM CLR 04/M02 A3008 RMK AO2 SLP195 T00391022
KPDT 062353Z 26015KT 10SM CLR 04/M02 A3007 RMK AO2 SLP191 T00441017 10061 20000 53007
KPDT 062253Z 25013KT 10SM CLR 06/M02 A3006 RMK AO2 SLP185 T00561017
KPDT 062153Z 24011KT 10SM CLR 06/M01 A3005 RMK AO2 SLP183 T00561011
KPDT 062053Z 24011KT 10SM CLR 06/M01 A3005 RMK AO2 SLP183 T00561011 58002
KPDT 061953Z 23009KT 10SM CLR 06/M01 A3005 RMK AO2 SLP184 T00561011
KPDT 061853Z 20007KT 10SM CLR 02/M01 A3006 RMK AO2 SLP186 T00221011
KPDT 061753Z 19008KT 10SM CLR 00/M02 A3005 RMK AO2 SLP187 I6004 T00001022 10000 21078 53009
KPDT 061653Z 20008KT 10SM CLR M02/M04 A3005 RMK AO2 SLP185 T10221039
KPDT 061553Z 13003KT 10SM CLR M06/M08 A3003 RMK AO2 SLP184 T10611078
KPDT 061453Z 15008KT 10SM CLR M06/M07 A3003 RMK AO2 SLP180 I3004 T10561072 55002
KPDT 061353Z 14009KT 10SM FEW045 M07/M08 A3002 RMK AO2 SLP179 I1001 T10671083
KPDT 061331Z AUTO 15009KT 3SM BR FEW033 M07/M08 A3002 RMK AO2 I1001 T10671078
KPDT 061324Z AUTO 15009KT 1 1/2SM R26/5000VP6000FT BR FEW033 M07/M08 A3002 RMK AO2 I1001 T10671078
KPDT 061313Z AUTO 16009KT 2SM BR SCT001 BKN033 M06/M08 A3002 RMK AO2 VIS 1V5 I1001 T10611078
KPDT 061310Z AUTO 16010KT 1SM R26/1800VP6000FT BR SCT001 BKN032 M06/M07 A3002 RMK AO2 I1001 T10611072
KPDT 061305Z AUTO 15009KT 1/2SM R26/1400VP6000FT FZFG BKN001 OVC032 M06/M07 A3002 RMK AO2 I1001 T10611072
KPDT 061253Z AUTO 15009KT 1/4SM R26/1000V1200FT FZFG VV001 M06/M07 A3002 RMK AO2 SLP179 I1003 T10561067
KPDT 061153Z AUTO 16009KT 1/4SM R26/1000V1400FT FZFG VV001 M04/M06 A3003 RMK AO2 SLP181 I1004 I6011 T10441056 11039 21050 58005
KPDT 061053Z AUTO 15009KT 1/4SM R26/1200V1600FT FZFG VV001 M04/M06 A3005 RMK AO2 SLP187 I1003 T10441056
KPDT 060953Z AUTO 15008KT 1/4SM R26/1200V1400FT FZFG VV001 M05/M06 A3005 RMK AO2 SLP186 I1001 T10501056
KPDT 060928Z AUTO 15003KT 1/4SM R26/1800V2000FT FZFG VV002 M04/M06 A3005 RMK AO2 I1000 T10441061
KPDT 060918Z AUTO VRB03KT 1/2SM R26/1800V2600FT FZFG VV002 M04/M06 A3005 RMK AO2 I1000 T10441061
KPDT 060907Z AUTO 00000KT 1/4SM R26/1800V2200FT FZFG VV002 M04/M06 A3005 RMK AO2 T10441056
KPDT 060857Z AUTO 00000KT 1/2SM R26/1600V2600FT FZFG VV002 M04/M06 A3005 RMK AO2 T10441056
KPDT 060853Z AUTO 00000KT 1/4SM R26/1600V1800FT FZFG VV002 M04/M06 A3005 RMK AO2 SLP187 I3003 T10441056 53003
KPDT 060822Z AUTO 27003KT 1/4SM R26/2000V2200FT FZFG VV002 M04/M06 A3005 RMK AO2 T10441056
KPDT 060753Z AUTO 26003KT 1/4SM R26/1800V2600FT FZFG VV002 M04/M06 A3005 RMK AO2 SLP186 I1002 T10441056 410221072
KPDT 060749Z AUTO 25004KT 1/2SM R26/1800V2600FT FZFG VV002 M04/M05 A3004 RMK AO2 I1002
KPDT 060653Z AUTO 00000KT 1/4SM R26/1800V2000FT FZFG VV002 M04/M05 A3004 RMK AO2 SLP183 I1001 T10391050
KPDT 060645Z AUTO 00000KT 1/4SM R26/1800V2200FT FZFG VV002 M04/M06 A3004 RMK AO2 I1001 T10391056
KPDT 060635Z AUTO 00000KT 1/4SM R26/2000V2400FT FZFG VV002 M04/M05 A3004 RMK AO2 I1001 T10391050
KPDT 060553Z AUTO 00000KT 1/4SM R26/1600FT FZFG VV002 M04/M05 A3004 RMK AO2 SLP183 I1001 I6001 T10391050 11033 21039 51006
KPDT 060453Z AUTO 00000KT 1/4SM R26/1400V1600FT FZFG VV002 M04/M05 A3004 RMK AO2 SLP183 I1000 T10391050
KPDT 060422Z AUTO 21003KT 1/4SM R26/1400V1800FT FZFG VV002 M04/M05 A3003 RMK AO2 I1000 T10391050
KPDT 060405Z AUTO 00000KT 1/2SM R26/2000V2200FT FZFG VV002 M04/M05 A3003 RMK AO2 T10391050
KPDT 060400Z AUTO 26003KT 1/2SM R26/2000V2400FT FZFG VV002 M04/M05 A3003 RMK AO2 T10391050
KPDT 060353Z 00000KT 1/4SM R26/2000V2200FT FZFG VV002 M04/M05 A3003 RMK AO2 SLP180 I1000 T10391050
KPDT 060342Z 00000KT 1/2SM R26/2000V2400FT FZFG VV002 M04/M05 A3003 RMK AO2 I1000 T10391050
KPDT 060339Z 00000KT 1/4SM R26/2000V2200FT FZFG VV002 M04/M04 A3003 RMK AO2 I1000 T10391044
KPDT 060253Z 00000KT 1/2SM R26/2800V3000FT FZFG VV002 M04/M05 A3002 RMK AO2 SLP177 I1000 I3000 T10391050 53004
KPDT 060153Z 00000KT 3/4SM R26/2600V3500FT BR VV002 M04/M05 A3001 RMK AO2 SLP175 T10391050
KPDT 060127Z 00000KT 1/2SM R26/2400V3000FT FZFG VV002 M04/M04 A3001 RMK AO2 T10391044
KPDT 060107Z 00000KT 1 1/4SM R26/5000VP6000FT BR OVC002 M03/M04 A3000 RMK AO2 T10331044
KPDT 060100Z 00000KT 2SM R26/5500VP6000FT BR OVC002 M03/M05 A3000 RMK AO2 T10331050
KPDT 060053Z 00000KT 1SM R26/P6000FT BR OVC002 M03/M05 A3001 RMK AO2 SLP172 T10331050
KPDT 052353Z 00000KT 4SM BR OVC003 M03/M04 A3001 RMK AO2 SLP175 T10331044 11022 21033 55000
KPDT 052304Z 18004KT 9SM OVC004 M03/M04 A3000 RMK AO2 T10331044
KPDT 052253Z 00000KT 10SM OVC005 M03/M04 A3000 RMK AO2 SLP172 T10331044
KPDT 052220Z 03003KT 10SM OVC005 M03/M05 A3001 RMK AO2 T10281050
KPDT 052153Z 36003KT 10SM OVC004 M03/M04 A3001 RMK AO2 SLP174 T10281044
KPDT 052053Z 00000KT 10SM OVC004 M03/M04 A3001 RMK AO2 SLP174 T10281044 58012
KPDT 052000Z 00000KT 9SM OVC003 M03/M04 A3003 RMK AO2 T10281044
KPDT 051953Z 00000KT 1SM R26/P6000FT BR OVC003 M03/M04 A3003 RMK AO2 SLP181 T10281039
KPDT 051916Z 35003KT 1SM R26/P6000FT BR OVC002 M03/M04 A3005 RMK AO2 T10281044
KPDT 051856Z 32003KT 3SM R26/3000VP6000FT BR OVC002 M03/M04 A3005 RMK AO2 T10331044
KPDT 051853Z 31003KT 1 1/2SM R26/2000VP6000FT BR OVC002 M03/M04 A3005 RMK AO2 SLP187 T10331044
KPDT 051844Z 00000KT 1/2SM R26/1600V2800FT FZFG VV002 M03/M04 A3005 RMK AO2 T10281044
KPDT 051820Z 00000KT 1/4SM R26/1600V2200FT FZFG VV002 M03/M04 A3005 RMK AO2 T10331044
KPDT 051753Z 00000KT 1/2SM R26/1800V3500FT FZFG VV002 M03/M04 A3005 RMK AO2 SLP188 I6000 T10331044 11028 21072 53004